Time;durP1;ratioP1;P1;durP2;ratioP2;P2;SDS_P1;SDS_P2;PMS_P1;PMS_P2;Temp;Humidity;BMP_temperature;BMP_pressure;BME280_temperature;BME280_humidity;BME280_pressure;Samples;Min_cycle;Max_cycle;Signal;HPM_P1;HPM_P2
2022/03/31 12:30:18;;;;;;;2.72;2.22;;;;;;;;;;7371080;19;132386;-15
2022/03/31 12:32:50;;;;;;;2.47;2.28;;;;;;;;;;7365237;19;153555;-13
2022/03/31 12:35:33;;;;;;;2.13;2.03;;;;;;;;;;7363801;19;161977;-15
2022/03/31 12:38:07;;;;;;;2.33;2.15;;;;;;;;;;7364148;19;162596;-14
2022/03/31 12:40:39;;;;;;;2.97;2.67;;;;;;;;;;7365310;19;154001;-14
2022/03/31 12:43:10;;;;;;;2.67;2.35;;;;;;;;;;7364923;19;153615;-21
2022/03/31 12:45:44;;;;;;;2.22;2.03;;;;;;;;;;7364310;19;162237;-15
2022/03/31 12:48:15;;;;;;;2.50;2.30;;;;;;;;;;7364509;19;162410;-15
2022/03/31 12:50:46;;;;;;;2.15;1.95;;;;;;;;;;7364561;19;153880;-15
2022/03/31 12:53:20;;;;;;;2.33;2.13;;;;;;;;;;7364686;19;153519;-14
2022/03/31 12:55:53;;;;;;;;;;;;;;;;;;7363261;19;162017;-14
2022/03/31 12:58:25;;;;;;;1.98;1.88;;;;;;;;;;7363372;19;162731;-14
2022/03/31 13:00:59;;;;;;;3.92;2.47;;;;;;;;;;7364206;19;153863;-14
2022/03/31 13:03:30;;;;;;;2.10;2.00;;;;;;;;;;7364002;19;153549;-16
2022/03/31 13:06:04;;;;;;;3.42;2.08;;;;;;;;;;7363816;19;161774;-15
2022/03/31 13:08:36;;;;;;;6.70;2.40;;;;;;;;;;7363236;19;162521;-14
2022/03/31 13:11:07;;;;;;;4.63;2.30;;;;;;;;;;7364140;19;153985;-15
2022/03/31 13:13:39;;;;;;;8.95;2.47;;;;;;;;;;7363844;19;153674;-14
2022/03/31 13:16:29;;;;;;;3.03;2.35;;;;;;;;;;7363448;19;161849;-14
2022/03/31 13:19:00;;;;;;;5.10;2.30;;;;;;;;;;7362227;19;163214;-14
2022/03/31 13:21:32;;;;;;;2.78;2.30;;;;;;;;;;7363934;19;153944;-15
2022/03/31 13:24:04;;;;;;;3.10;2.80;;;;;;;;;;7362577;19;153944;-14
2022/03/31 13:26:36;;;;;;;9.75;6.95;;;;;;;;;;7362026;19;161942;-14
2022/03/31 13:29:10;;;;;;;5.80;3.43;;;;;;;;;;7358239;19;162444;-14
2022/03/31 13:31:46;;;;;;;9.77;6.40;;;;;;;;;;7334167;19;153912;-14
2022/03/31 13:34:17;;;;;;;8.25;4.82;;;;;;;;;;7334510;19;153545;-15
2022/03/31 13:36:49;;;;;;;5.57;4.82;;;;;;;;;;7334160;19;162027;-14
2022/03/31 13:39:20;;;;;;;7.45;5.32;;;;;;;;;;7332850;19;162393;-15
2022/03/31 13:41:51;;;;;;;9.00;5.75;;;;;;;;;;7334327;19;153956;-14
2022/03/31 13:44:22;;;;;;;105.28;75.22;;;;;;;;;;7334129;19;153677;-16
2022/03/31 13:46:57;;;;;;;53.35;38.45;;;;;;;;;;7333755;19;161964;-15
2022/03/31 13:49:28;;;;;;;88.57;61.72;;;;;;;;;;7333782;19;162560;-15
2022/03/31 13:52:00;;;;;;;53.25;38.72;;;;;;;;;;7333793;19;153943;-16
2022/03/31 13:54:34;;;;;;;52.30;35.30;;;;;;;;;;7333696;19;153788;-16
2022/03/31 14:01:07;;;;;;;76.60;52.15;;;;;;;;;;7333594;19;161912;-14
2022/03/31 14:02:46;;;;;;;67.00;46.30;;;;;;;;;;7333799;19;154063;-15
2022/03/31 14:05:17;;;;;;;63.58;41.85;;;;;;;;;;7333641;19;153730;-16
2022/03/31 14:07:49;;;;;;;57.13;40.13;;;;;;;;;;7332987;19;161868;-15
2022/03/31 14:10:21;;;;;;;54.10;38.43;;;;;;;;;;7332057;19;162474;-15
2022/03/31 14:12:54;;;;;;;54.03;39.67;;;;;;;;;;7333421;19;153873;-15
2022/03/31 14:15:25;;;;;;;;;;;;;;;;;;7333773;19;153578;-14
2022/03/31 14:18:00;;;;;;;57.03;41.67;;;;;;;;;;7332045;19;162269;-14
2022/03/31 14:20:35;;;;;;;55.40;37.75;;;;;;;;;;7330922;19;162480;-14
2022/03/31 14:23:06;;;;;;;54.17;40.53;;;;;;;;;;7333255;19;154299;-15
2022/03/31 14:25:38;;;;;;;56.83;40.20;;;;;;;;;;7333035;19;153625;-15
2022/03/31 14:28:09;;;;;;;60.53;39.40;;;;;;;;;;7331665;19;162021;-16
2022/03/31 14:30:42;;;;;;;50.83;36.58;;;;;;;;;;7331318;19;162570;-16
2022/03/31 14:33:19;;;;;;;55.72;37.72;;;;;;;;;;7332767;19;154015;-16
2022/03/31 14:35:52;;;;;;;51.92;35.80;;;;;;;;;;7332671;19;153642;-16
2022/03/31 14:38:25;;;;;;;;;;;;;;;;;;7332556;19;161980;-14
2022/03/31 14:40:58;;;;;;;47.10;34.25;;;;;;;;;;7328713;19;162537;-15
2022/03/31 14:43:30;;;;;;;44.35;33.88;;;;;;;;;;7331707;19;154249;-13
2022/03/31 14:46:01;;;;;;;46.20;33.13;;;;;;;;;;7332363;19;153596;-14
2022/03/31 14:48:35;;;;;;;45.53;31.77;;;;;;;;;;7331732;19;161834;-16
2022/03/31 14:51:08;;;;;;;45.58;32.22;;;;;;;;;;7331858;19;162500;-15
2022/03/31 14:53:40;;;;;;;44.10;33.63;;;;;;;;;;7331948;19;154230;-15
2022/03/31 14:56:13;;;;;;;47.28;32.85;;;;;;;;;;7331769;19;153652;-14
2022/03/31 14:58:49;;;;;;;40.50;31.75;;;;;;;;;;7331755;19;162216;-16
2022/03/31 15:01:21;;;;;;;42.42;31.02;;;;;;;;;;7328730;19;162192;-15
2022/03/31 15:03:55;;;;;;;41.13;30.75;;;;;;;;;;7332010;19;154233;-15
2022/03/31 15:06:28;;;;;;;45.42;29.80;;;;;;;;;;7331630;19;153536;-13
2022/03/31 15:09:00;;;;;;;41.67;29.33;;;;;;;;;;7331279;19;161983;-14
2022/03/31 15:17:00;;;;;;;40.75;27.42;;;;;;;;;;7331374;19;153704;-15
2022/03/31 15:19:34;;;;;;;39.72;27.60;;;;;;;;;;7329513;19;161721;-16
2022/03/31 15:22:05;;;;;;;36.90;27.67;;;;;;;;;;7330866;19;162517;-13
2022/03/31 15:24:40;;;;;;;37.45;28.17;;;;;;;;;;7331257;19;154066;-16
2022/03/31 15:27:11;;;;;;;35.80;26.35;;;;;;;;;;7331229;19;153391;-15
2022/03/31 15:29:43;;;;;;;34.92;25.45;;;;;;;;;;7328663;19;162013;-13
2022/03/31 15:32:17;;;;;;;37.88;25.60;;;;;;;;;;7330658;19;162480;-13
2022/03/31 15:34:51;;;;;;;35.40;24.15;;;;;;;;;;7330986;19;153871;-14
2022/03/31 15:37:24;;;;;;;35.10;25.48;;;;;;;;;;7331206;19;153865;-14
2022/03/31 15:39:55;;;;;;;32.30;22.60;;;;;;;;;;7329798;19;161915;-12
2022/03/31 15:42:27;;;;;;;31.52;23.38;;;;;;;;;;7330112;19;162326;-16
2022/03/31 15:44:58;;;;;;;40.83;24.50;;;;;;;;;;7330850;19;153886;-15
2022/03/31 15:47:29;;;;;;;34.47;23.30;;;;;;;;;;7330560;19;153670;-13
2022/03/31 15:50:07;;;;;;;32.58;24.30;;;;;;;;;;7330102;19;161655;-13
2022/03/31 15:52:39;;;;;;;30.35;22.33;;;;;;;;;;7329140;19;162374;-14
2022/03/31 15:55:11;;;;;;;31.30;22.73;;;;;;;;;;7330490;19;154194;-14
2022/03/31 15:57:42;;;;;;;28.85;20.90;;;;;;;;;;7330355;19;153996;-13
2022/03/31 16:00:15;;;;;;;28.85;20.92;;;;;;;;;;7329202;19;161957;-14
2022/03/31 16:02:46;;;;;;;26.00;20.55;;;;;;;;;;7329309;19;162450;-14
2022/03/31 16:05:21;;;;;;;29.45;22.38;;;;;;;;;;7329164;19;154082;-14
2022/03/31 16:07:52;;;;;;;26.88;19.48;;;;;;;;;;7329820;19;153917;-25
2022/03/31 16:10:24;;;;;;;27.70;19.83;;;;;;;;;;7329725;19;161721;-13
2022/03/31 16:12:55;;;;;;;25.33;19.65;;;;;;;;;;7329524;19;162402;-13
2022/03/31 16:15:27;;;;;;;27.77;19.77;;;;;;;;;;7329805;19;154114;-14
2022/03/31 16:17:58;;;;;;;25.92;18.15;;;;;;;;;;7329579;19;153818;-13
2022/03/31 16:20:47;;;;;;;25.17;18.92;;;;;;;;;;7328144;19;162121;-13
2022/03/31 16:26:05;;;;;;;27.85;17.55;;;;;;;;;;7328510;19;154108;-17
2022/03/31 16:28:37;;;;;;;25.88;17.73;;;;;;;;;;7328325;19;153600;-13
2022/03/31 16:31:08;;;;;;;23.65;18.10;;;;;;;;;;7329036;19;161799;-16
2022/03/31 16:33:41;;;;;;;;;;;;;;;;;;7329530;19;162586;-16
2022/03/31 16:36:17;;;;;;;24.73;16.13;;;;;;;;;;7329476;19;154430;-16
2022/03/31 16:38:49;;;;;;;29.27;17.90;;;;;;;;;;7328834;19;153698;-14
2022/03/31 16:41:21;;;;;;;25.53;17.40;;;;;;;;;;7327305;19;161710;-15
2022/03/31 16:43:53;;;;;;;20.30;15.10;;;;;;;;;;7327514;19;162529;-14
2022/03/31 16:46:24;;;;;;;20.13;15.65;;;;;;;;;;7329119;19;153965;-15
2022/03/31 16:48:56;;;;;;;22.80;16.10;;;;;;;;;;7328555;19;153526;-15
2022/03/31 16:51:29;;;;;;;21.58;15.48;;;;;;;;;;7328506;19;161958;-14
2022/03/31 16:54:01;;;;;;;20.02;14.50;;;;;;;;;;7327776;19;162348;-16
2022/03/31 16:56:32;;;;;;;20.67;15.05;;;;;;;;;;7328375;19;154270;-15
2022/03/31 16:59:04;;;;;;;23.40;15.05;;;;;;;;;;7328504;19;153718;-15
2022/03/31 17:01:35;;;;;;;19.70;14.40;;;;;;;;;;7325975;19;161590;-15
2022/03/31 17:04:06;;;;;;;22.48;15.40;;;;;;;;;;7327699;19;162607;-14
2022/03/31 17:06:42;;;;;;;19.20;13.57;;;;;;;;;;7334572;19;153970;-14
2022/03/31 17:09:14;;;;;;;20.92;14.75;;;;;;;;;;7334863;19;153612;-14
2022/03/31 17:11:45;;;;;;;18.33;13.45;;;;;;;;;;7334504;19;161781;-15
2022/03/31 17:14:16;;;;;;;16.88;13.00;;;;;;;;;;7334417;19;162038;-15
2022/03/31 17:16:47;;;;;;;15.98;13.40;;;;;;;;;;7333580;19;154035;-14
2022/03/31 17:19:18;;;;;;;17.77;13.52;;;;;;;;;;7334669;19;153627;-15
2022/03/31 17:21:53;;;;;;;17.17;12.38;;;;;;;;;;7333121;19;161871;-13
2022/03/31 17:24:25;;;;;;;16.48;13.38;;;;;;;;;;7334149;19;162482;-16
2022/03/31 17:26:57;;;;;;;18.40;12.38;;;;;;;;;;7334159;19;153944;-16
2022/03/31 17:29:28;;;;;;;16.98;12.32;;;;;;;;;;7332653;19;153788;-14
2022/03/31 17:32:02;;;;;;;17.20;12.77;;;;;;;;;;7334043;19;161850;-15
2022/03/31 17:34:34;;;;;;;16.23;11.90;;;;;;;;;;7334035;19;162516;-16
2022/03/31 17:37:09;;;;;;;19.35;11.90;;;;;;;;;;7333705;19;153991;-15
2022/03/31 17:39:49;;;;;;;17.30;12.18;;;;;;;;;;7334426;19;153677;-14
2022/03/31 17:42:21;;;;;;;17.67;11.70;;;;;;;;;;7332522;19;161831;-16
2022/03/31 17:44:52;;;;;;;15.65;11.95;;;;;;;;;;7333698;19;162338;-17
2022/03/31 17:47:23;;;;;;;13.82;11.60;;;;;;;;;;7333968;19;153949;-21
2022/03/31 17:49:54;;;;;;;14.70;11.02;;;;;;;;;;7333707;19;153713;-15
2022/03/31 17:52:28;;;;;;;15.57;11.05;;;;;;;;;;7332104;19;161828;-26
2022/03/31 17:54:59;;;;;;;15.45;11.35;;;;;;;;;;7333634;19;162591;-14
2022/03/31 17:57:32;;;;;;;14.27;10.35;;;;;;;;;;7333464;19;153928;-14
2022/03/31 18:00:05;;;;;;;14.77;9.98;;;;;;;;;;7333603;19;153610;-15
2022/03/31 18:02:41;;;;;;;15.07;10.98;;;;;;;;;;7331544;19;161677;-14
2022/03/31 18:05:13;;;;;;;14.25;10.35;;;;;;;;;;7333220;19;162137;-15
2022/03/31 18:07:47;;;;;;;12.60;9.18;;;;;;;;;;7332452;19;153943;-15
2022/03/31 18:10:19;;;;;;;12.10;9.63;;;;;;;;;;7333842;19;153892;-15
2022/03/31 18:12:51;;;;;;;11.33;8.93;;;;;;;;;;7332759;19;161912;-15
2022/03/31 18:15:22;;;;;;;12.98;8.90;;;;;;;;;;7332829;19;162364;-14
2022/03/31 18:17:55;;;;;;;12.82;9.50;;;;;;;;;;7333374;19;154039;-14
2022/03/31 18:20:26;;;;;;;11.30;8.88;;;;;;;;;;7333415;19;153535;-16
2022/03/31 18:23:02;;;;;;;11.65;8.43;;;;;;;;;;7330877;19;161947;-17
2022/03/31 18:25:35;;;;;;;10.50;8.18;;;;;;;;;;7332445;19;162747;-15
2022/03/31 18:28:10;;;;;;;9.65;8.05;;;;;;;;;;7332834;19;154123;-16
2022/03/31 18:36:09;;;;;;;11.02;7.43;;;;;;;;;;7332423;19;162497;-21
2022/03/31 18:38:43;;;;;;;9.63;7.57;;;;;;;;;;7332724;19;154122;-16
2022/03/31 18:41:15;;;;;;;9.25;7.28;;;;;;;;;;7332839;19;153692;-14
2022/03/31 18:43:47;;;;;;;11.75;8.23;;;;;;;;;;7329940;19;161998;-15
2022/03/31 18:46:20;;;;;;;8.82;5.90;;;;;;;;;;7332048;19;162705;-16
2022/03/31 18:48:51;;;;;;;8.65;7.75;;;;;;;;;;7332607;19;154017;-15
2022/03/31 18:51:22;;;;;;;11.00;7.22;;;;;;;;;;7331515;19;153610;-16
2022/03/31 18:53:57;;;;;;;8.30;6.03;;;;;;;;;;7331819;19;161831;-14
2022/03/31 18:56:28;;;;;;;7.13;5.15;;;;;;;;;;7331822;19;162641;-15
2022/03/31 18:59:01;;;;;;;6.80;4.47;;;;;;;;;;7332020;19;154072;-14
2022/03/31 19:01:34;;;;;;;6.78;4.75;;;;;;;;;;7332058;19;153524;-14
2022/03/31 19:04:06;;;;;;;9.38;5.13;;;;;;;;;;7329090;19;161794;-16
2022/03/31 19:09:24;;;;;;;5.88;4.20;;;;;;;;;;7331938;19;154056;-16
2022/03/31 19:11:55;;;;;;;5.80;3.58;;;;;;;;;;7331882;19;153684;-15
2022/03/31 19:14:28;;;;;;;5.38;3.63;;;;;;;;;;7331193;19;161843;-14
2022/03/31 19:17:10;;;;;;;5.22;3.92;;;;;;;;;;7331356;19;162430;-14
2022/03/31 19:19:41;;;;;;;6.63;4.18;;;;;;;;;;7331316;19;153937;-15
2022/03/31 19:22:12;;;;;;;6.35;4.93;;;;;;;;;;7331112;19;153573;-14
2022/03/31 19:24:46;;;;;;;8.65;4.70;;;;;;;;;;7330578;19;161834;-14
2022/03/31 19:27:17;;;;;;;5.68;4.20;;;;;;;;;;7329666;19;162389;-15
2022/03/31 19:29:49;;;;;;;10.07;4.20;;;;;;;;;;7329213;19;154040;-15
2022/03/31 19:32:20;;;;;;;7.95;3.90;;;;;;;;;;7331323;19;153915;-15
2022/03/31 19:34:52;;;;;;;7.90;5.03;;;;;;;;;;7329766;19;161916;-16
2022/03/31 19:37:23;;;;;;;6.63;4.10;;;;;;;;;;7333111;19;162353;-15
2022/03/31 19:39:59;;;;;;;7.63;4.47;;;;;;;;;;7332929;19;153987;-14
2022/03/31 19:42:31;;;;;;;6.95;3.90;;;;;;;;;;7333076;19;153554;-16
2022/03/31 19:45:03;;;;;;;9.85;4.88;;;;;;;;;;7330445;19;162073;-15
2022/03/31 19:47:35;;;;;;;9.45;4.60;;;;;;;;;;7330285;19;162489;-14
2022/03/31 19:50:08;;;;;;;5.45;4.57;;;;;;;;;;7331628;19;154206;-15
2022/03/31 19:52:39;;;;;;;;;;;;;;;;;;7334722;19;153653;-15
2022/03/31 19:55:13;;;;;;;7.15;4.45;;;;;;;;;;7328708;19;162135;-14
2022/03/31 19:57:44;;;;;;;9.45;3.75;;;;;;;;;;7329850;19;162390;-15
2022/03/31 20:00:19;;;;;;;5.22;4.00;;;;;;;;;;7330030;19;154305;-14
2022/03/31 20:02:52;;;;;;;5.53;3.97;;;;;;;;;;7329584;19;153517;-15
2022/03/31 20:05:24;;;;;;;8.82;4.55;;;;;;;;;;7329795;19;161859;-14
2022/03/31 20:07:59;;;;;;;8.40;4.30;;;;;;;;;;7329565;19;162301;-15
2022/03/31 20:10:33;;;;;;;8.50;4.75;;;;;;;;;;7329694;19;154109;-15
2022/03/31 20:13:06;;;;;;;7.10;4.20;;;;;;;;;;7329802;19;153502;-15
2022/03/31 20:15:37;;;;;;;;;;;;;;;;;;7331137;19;161819;-15
2022/03/31 20:18:08;;;;;;;5.40;3.80;;;;;;;;;;7329270;19;162668;-16
2022/03/31 20:20:40;;;;;;;10.90;4.03;;;;;;;;;;7329102;19;154011;-13
2022/03/31 20:23:13;;;;;;;5.38;4.20;;;;;;;;;;7330785;19;153521;-14
2022/03/31 20:25:49;;;;;;;6.45;3.88;;;;;;;;;;7329053;19;161791;-14
2022/03/31 20:28:21;;;;;;;6.50;4.05;;;;;;;;;;7332115;19;162426;-14
2022/03/31 20:30:53;;;;;;;8.70;4.00;;;;;;;;;;7328730;19;154057;-13
2022/03/31 20:33:24;;;;;;;4.38;3.35;;;;;;;;;;7329005;19;154138;-14
2022/03/31 20:35:55;;;;;;;4.03;3.45;;;;;;;;;;7328721;19;161862;-14
2022/03/31 20:38:27;;;;;;;4.97;3.58;;;;;;;;;;7328560;19;162739;-28
2022/03/31 20:41:01;;;;;;;4.07;3.50;;;;;;;;;;7333483;19;154052;-15
2022/03/31 20:43:32;;;;;;;5.20;3.55;;;;;;;;;;7334931;19;153538;-14
2022/03/31 20:46:03;;;;;;;7.25;3.38;;;;;;;;;;7335206;19;161791;-13
2022/03/31 20:48:34;;;;;;;4.35;3.35;;;;;;;;;;7335198;19;162382;-13
2022/03/31 20:51:06;;;;;;;5.28;3.53;;;;;;;;;;7335323;19;154306;-13
2022/03/31 20:53:37;;;;;;;26.70;8.48;;;;;;;;;;7335277;19;153521;-16
2022/03/31 20:56:12;;;;;;;12.20;5.95;;;;;;;;;;7334859;19;161905;-13
2022/03/31 20:58:44;;;;;;;10.73;4.00;;;;;;;;;;7334569;19;162707;-15
2022/03/31 21:01:16;;;;;;;14.05;5.03;;;;;;;;;;7336472;19;154039;-20
2022/03/31 21:03:48;;;;;;;6.77;3.57;;;;;;;;;;7337518;19;153914;-15
2022/03/31 21:06:19;;;;;;;5.60;3.47;;;;;;;;;;7337832;19;161880;-13
2022/03/31 21:08:51;;;;;;;7.53;3.63;;;;;;;;;;7337736;19;163037;-14
2022/03/31 21:11:25;;;;;;;5.20;3.15;;;;;;;;;;7337084;19;153975;-15
2022/03/31 21:13:56;;;;;;;6.20;3.58;;;;;;;;;;7336225;19;153590;-15
2022/03/31 21:16:28;;;;;;;7.15;3.80;;;;;;;;;;7335903;19;162086;-14
2022/03/31 21:19:03;;;;;;;8.77;3.67;;;;;;;;;;7337780;19;162472;-15
2022/03/31 21:21:35;;;;;;;6.32;4.32;;;;;;;;;;7337509;19;154107;-15
2022/03/31 21:24:10;;;;;;;6.55;3.47;;;;;;;;;;7337726;19;153668;-15
2022/03/31 21:26:47;;;;;;;7.70;3.65;;;;;;;;;;7333391;19;161867;-14
2022/03/31 21:29:20;;;;;;;5.63;3.17;;;;;;;;;;7335036;19;162606;-14
2022/03/31 21:31:52;;;;;;;5.35;3.42;;;;;;;;;;7337408;19;154122;-15
2022/03/31 21:34:24;;;;;;;4.97;2.63;;;;;;;;;;7337643;19;153567;-14
2022/03/31 21:36:59;;;;;;;6.72;3.05;;;;;;;;;;7336139;19;162068;-14
2022/03/31 21:39:32;;;;;;;4.97;2.63;;;;;;;;;;7335766;19;162564;-17
2022/03/31 21:42:06;;;;;;;;;;;;;;;;;;7338649;19;154358;-16
2022/03/31 21:44:39;;;;;;;5.20;2.75;;;;;;;;;;7336563;19;153360;-15
2022/03/31 21:47:10;;;;;;;;;;;;;;;;;;7336015;19;161878;-16
2022/03/31 21:49:41;;;;;;;4.40;2.60;;;;;;;;;;7336119;19;162546;-15
2022/03/31 21:52:13;;;;;;;4.65;2.92;;;;;;;;;;7335843;19;153958;-15
2022/03/31 21:54:44;;;;;;;5.20;2.70;;;;;;;;;;7336843;19;153558;-14
2022/03/31 21:57:18;;;;;;;4.65;2.65;;;;;;;;;;7336786;19;162085;-14
2022/03/31 21:59:49;;;;;;;7.38;2.97;;;;;;;;;;7336472;19;162566;-15
2022/03/31 22:02:20;;;;;;;7.57;3.00;;;;;;;;;;7335346;19;154119;-16
2022/03/31 22:04:52;;;;;;;5.50;2.75;;;;;;;;;;7334505;19;153561;-15
2022/03/31 22:07:24;;;;;;;5.35;2.72;;;;;;;;;;7336616;19;161918;-14
2022/03/31 22:12:42;;;;;;;5.18;2.33;;;;;;;;;;7333114;19;154003;-16
2022/03/31 22:15:14;;;;;;;3.78;2.40;;;;;;;;;;7332004;19;153805;-14
2022/03/31 22:17:45;;;;;;;4.25;2.30;;;;;;;;;;7331787;19;161955;-14
2022/03/31 22:20:16;;;;;;;6.22;2.60;;;;;;;;;;7332632;19;162322;-13
2022/03/31 22:22:48;;;;;;;3.20;2.45;;;;;;;;;;7333061;19;154052;-15
2022/03/31 22:25:19;;;;;;;3.53;2.15;;;;;;;;;;7331647;19;153532;-16
2022/03/31 22:27:53;;;;;;;3.47;2.37;;;;;;;;;;7332316;19;161895;-14
2022/03/31 22:30:25;;;;;;;3.78;2.38;;;;;;;;;;7329435;19;162412;-15
2022/03/31 22:32:56;;;;;;;4.28;2.60;;;;;;;;;;7332383;19;154052;-15
2022/03/31 22:35:28;;;;;;;4.00;2.40;;;;;;;;;;7336149;19;153540;-13
2022/03/31 22:37:59;;;;;;;3.08;1.98;;;;;;;;;;7331875;19;161894;-15
2022/03/31 22:40:31;;;;;;;2.53;2.17;;;;;;;;;;7331929;19;162681;-14
2022/03/31 22:43:04;;;;;;;4.78;2.40;;;;;;;;;;7332715;19;154311;-15
2022/03/31 22:45:36;;;;;;;4.72;2.50;;;;;;;;;;7334826;19;153343;-16
2022/03/31 22:48:09;;;;;;;3.00;1.92;;;;;;;;;;7331704;19;162001;-14
2022/03/31 22:50:40;;;;;;;;;;;;;;;;;;7334895;19;162382;-14
2022/03/31 22:53:11;;;;;;;4.57;2.42;;;;;;;;;;7333711;19;153966;-15
2022/03/31 22:55:44;;;;;;;6.28;1.85;;;;;;;;;;7331945;19;153641;-16
2022/03/31 22:58:19;;;;;;;6.20;2.05;;;;;;;;;;7331489;19;161936;-15
2022/03/31 23:00:50;;;;;;;4.22;2.03;;;;;;;;;;7329343;19;162439;-16
2022/03/31 23:03:24;;;;;;;5.75;1.60;;;;;;;;;;7329492;19;153981;-15
2022/03/31 23:05:56;;;;;;;6.05;1.92;;;;;;;;;;7330381;19;153282;-16
